DLH15T EDDH-LFPG
Flight info
| Callsign | DLH15T |
|---|---|
| Flight time | 1h 15m |
| Altitude | 36000 |
| Route | WSN5G/33 WSN N125 ITMIZ DCT EMMUN DCT BUB DCT NILEM/N0446F350 DCT MOPIL |
| Aircraft | A321/M-SDE3FGHIRWY/LB1 |
Departure
| Time | 2026-04-24 19:00 |
|---|---|
| Airport | Hamburg Helmut Schmidt Airport (EDDH) |
Arrival
| Time | 2026-04-24 20:15 |
|---|---|
| Airport | Charles de Gaulle International Airport (LFPG) |
| Time | Latitude | Longitude | Altitude | Speed | Heading |
|---|---|---|---|---|---|
| 2026-04-24 18:54 | 53.62902 | 9.99937 | 48 ft | 0 kts | 242° |
| 2026-04-24 18:57 | 53.62895 | 9.99915 | 45 ft | 6 kts | 242° |
| 2026-04-24 18:58 | 53.62871 | 9.99834 | 45 ft | 9 kts | 246° |
| 2026-04-24 18:58 | 53.62886 | 9.99737 | 45 ft | 0 kts | 322° |
| 2026-04-24 18:58 | 53.62890 | 9.99734 | 45 ft | 0 kts | 327° |
| 2026-04-24 18:59 | 53.62906 | 9.99716 | 45 ft | 11 kts | 328° |
| 2026-04-24 18:59 | 53.63119 | 9.99528 | 46 ft | 68 kts | 332° |
| 2026-04-24 19:00 | 53.63746 | 9.98969 | 49 ft | 133 kts | 331° |
| 2026-04-24 19:00 | 53.64680 | 9.98194 | 470 ft | 147 kts | 334° |
| 2026-04-24 19:00 | 53.65603 | 9.97499 | 1277 ft | 146 kts | 332° |
| 2026-04-24 19:00 | 53.66553 | 9.96686 | 1834 ft | 164 kts | 331° |
| 2026-04-24 19:01 | 53.67623 | 9.95753 | 2270 ft | 182 kts | 334° |
| 2026-04-24 19:01 | 53.68769 | 9.94759 | 2772 ft | 188 kts | 334° |
| 2026-04-24 19:01 | 53.69940 | 9.93676 | 3393 ft | 191 kts | 332° |
| 2026-04-24 19:01 | 53.71033 | 9.92430 | 4125 ft | 194 kts | 315° |
| 2026-04-24 19:02 | 53.71588 | 9.90293 | 4629 ft | 216 kts | 277° |
| 2026-04-24 19:02 | 53.71283 | 9.87619 | 4894 ft | 248 kts | 259° |
| 2026-04-24 19:02 | 53.70747 | 9.84747 | 5077 ft | 262 kts | 257° |
| 2026-04-24 19:02 | 53.70152 | 9.81808 | 5072 ft | 266 kts | 256° |
| 2026-04-24 19:03 | 53.69521 | 9.78879 | 5006 ft | 266 kts | 255° |
| 2026-04-24 19:03 | 53.68877 | 9.75957 | 4988 ft | 264 kts | 255° |
| 2026-04-24 19:03 | 53.68255 | 9.73039 | 5139 ft | 265 kts | 256° |
| 2026-04-24 19:03 | 53.67646 | 9.70101 | 5092 ft | 265 kts | 256° |
| 2026-04-24 19:04 | 53.67054 | 9.67169 | 5028 ft | 263 kts | 257° |
| 2026-04-24 19:04 | 53.66480 | 9.64268 | 5240 ft | 260 kts | 257° |
| 2026-04-24 19:04 | 53.65910 | 9.61331 | 5847 ft | 266 kts | 257° |
| 2026-04-24 19:04 | 53.65281 | 9.58366 | 6560 ft | 273 kts | 250° |
| 2026-04-24 19:05 | 53.64274 | 9.55599 | 7219 ft | 280 kts | 239° |
| 2026-04-24 19:05 | 53.63127 | 9.52924 | 7896 ft | 283 kts | 239° |
| 2026-04-24 19:05 | 53.61982 | 9.50262 | 8573 ft | 285 kts | 239° |
| 2026-04-24 19:05 | 53.60809 | 9.47537 | 9217 ft | 289 kts | 239° |
| 2026-04-24 19:06 | 53.59622 | 9.44784 | 9882 ft | 293 kts | 239° |
| 2026-04-24 19:06 | 53.58418 | 9.41990 | 10111 ft | 295 kts | 239° |
| 2026-04-24 19:06 | 53.57214 | 9.39200 | 10174 ft | 295 kts | 239° |
| 2026-04-24 19:06 | 53.55998 | 9.36378 | 10178 ft | 297 kts | 239° |
| 2026-04-24 19:07 | 53.54762 | 9.33514 | 10388 ft | 313 kts | 238° |
| 2026-04-24 19:07 | 53.53446 | 9.30452 | 10515 ft | 333 kts | 238° |
| 2026-04-24 19:07 | 53.52060 | 9.27227 | 10818 ft | 345 kts | 238° |
| 2026-04-24 19:07 | 53.50638 | 9.23932 | 11368 ft | 349 kts | 238° |
| 2026-04-24 19:08 | 53.49205 | 9.20628 | 11976 ft | 351 kts | 238° |
| 2026-04-24 19:08 | 53.47758 | 9.17306 | 12601 ft | 353 kts | 237° |
| 2026-04-24 19:08 | 53.46301 | 9.13970 | 13211 ft | 355 kts | 237° |
| 2026-04-24 19:08 | 53.44839 | 9.10623 | 13837 ft | 357 kts | 237° |
| 2026-04-24 19:09 | 53.43366 | 9.07251 | 14394 ft | 359 kts | 237° |
| 2026-04-24 19:09 | 53.41888 | 9.03867 | 14928 ft | 361 kts | 237° |
| 2026-04-24 19:09 | 53.40419 | 9.00497 | 15448 ft | 363 kts | 237° |
| 2026-04-24 19:09 | 53.38901 | 8.97022 | 15966 ft | 366 kts | 237° |
| 2026-04-24 19:10 | 53.37413 | 8.93626 | 16498 ft | 368 kts | 237° |
| 2026-04-24 19:10 | 53.35896 | 8.90170 | 17016 ft | 369 kts | 237° |
| 2026-04-24 19:10 | 53.34560 | 8.86507 | 17521 ft | 368 kts | 247° |
| 2026-04-24 19:10 | 53.33611 | 8.82528 | 18030 ft | 369 kts | 252° |
| 2026-04-24 19:11 | 53.32728 | 8.78488 | 18525 ft | 371 kts | 252° |
| 2026-04-24 19:11 | 53.31825 | 8.74377 | 18962 ft | 373 kts | 252° |
| 2026-04-24 19:11 | 53.30928 | 8.70302 | 19391 ft | 375 kts | 252° |
| 2026-04-24 19:11 | 53.30022 | 8.66202 | 19806 ft | 376 kts | 251° |
| 2026-04-24 19:12 | 53.29128 | 8.62148 | 20221 ft | 378 kts | 251° |
| 2026-04-24 19:12 | 53.28217 | 8.58006 | 20676 ft | 380 kts | 251° |
| 2026-04-24 19:12 | 53.27304 | 8.53853 | 21086 ft | 381 kts | 251° |
| 2026-04-24 19:12 | 53.26389 | 8.49680 | 21500 ft | 383 kts | 252° |
| 2026-04-24 19:13 | 53.25807 | 8.46900 | 21768 ft | 384 kts | 253° |
| 2026-04-24 19:13 | 53.24710 | 8.41202 | 22310 ft | 386 kts | 254° |
| 2026-04-24 19:13 | 53.23925 | 8.36901 | 22712 ft | 388 kts | 254° |
| 2026-04-24 19:13 | 53.23143 | 8.32579 | 23102 ft | 390 kts | 254° |
| 2026-04-24 19:14 | 53.22351 | 8.28242 | 23496 ft | 392 kts | 254° |
| 2026-04-24 19:14 | 53.21541 | 8.23893 | 23884 ft | 394 kts | 253° |
| 2026-04-24 19:14 | 53.20714 | 8.19533 | 24235 ft | 395 kts | 253° |
| 2026-04-24 19:14 | 53.19878 | 8.15165 | 24589 ft | 396 kts | 253° |
| 2026-04-24 19:15 | 53.19036 | 8.10790 | 24952 ft | 397 kts | 253° |
| 2026-04-24 19:15 | 53.18198 | 8.06405 | 25307 ft | 397 kts | 253° |
| 2026-04-24 19:15 | 53.17363 | 8.02002 | 25661 ft | 398 kts | 253° |
| 2026-04-24 19:15 | 53.16534 | 7.97597 | 26005 ft | 399 kts | 253° |
| 2026-04-24 19:16 | 53.14868 | 7.88760 | 26692 ft | 401 kts | 253° |
| 2026-04-24 19:16 | 53.14026 | 7.84321 | 27043 ft | 402 kts | 253° |
| 2026-04-24 19:16 | 53.13191 | 7.79942 | 27360 ft | 403 kts | 253° |
| 2026-04-24 19:17 | 53.12297 | 7.75518 | 27689 ft | 404 kts | 248° |
| 2026-04-24 19:17 | 53.10843 | 7.71496 | 27993 ft | 410 kts | 232° |
| 2026-04-24 19:17 | 53.08739 | 7.68236 | 28286 ft | 416 kts | 223° |
| 2026-04-24 19:17 | 53.06472 | 7.65215 | 28594 ft | 418 kts | 222° |
| 2026-04-24 19:18 | 53.04186 | 7.62208 | 28880 ft | 420 kts | 222° |
| 2026-04-24 19:18 | 53.01889 | 7.59200 | 29143 ft | 422 kts | 222° |
| 2026-04-24 19:18 | 52.99582 | 7.56184 | 29458 ft | 421 kts | 222° |
| 2026-04-24 19:18 | 52.97284 | 7.53179 | 29839 ft | 420 kts | 222° |
| 2026-04-24 19:19 | 52.94996 | 7.50182 | 30148 ft | 420 kts | 222° |
| 2026-04-24 19:19 | 52.92705 | 7.47178 | 30388 ft | 420 kts | 223° |
| 2026-04-24 19:19 | 52.90414 | 7.44172 | 30622 ft | 420 kts | 223° |
| 2026-04-24 19:19 | 52.88125 | 7.41173 | 30892 ft | 419 kts | 223° |
| 2026-04-24 19:20 | 52.85839 | 7.38187 | 31145 ft | 418 kts | 223° |
| 2026-04-24 19:20 | 52.83554 | 7.35213 | 31398 ft | 418 kts | 223° |
| 2026-04-24 19:20 | 52.81303 | 7.32289 | 31647 ft | 417 kts | 223° |
| 2026-04-24 19:20 | 52.79021 | 7.29323 | 31900 ft | 417 kts | 223° |
| 2026-04-24 19:21 | 52.76745 | 7.26367 | 32087 ft | 418 kts | 222° |
| 2026-04-24 19:21 | 52.74456 | 7.23394 | 32284 ft | 419 kts | 223° |
| 2026-04-24 19:21 | 52.72167 | 7.20425 | 32502 ft | 419 kts | 223° |
| 2026-04-24 19:21 | 52.69875 | 7.17459 | 32733 ft | 418 kts | 222° |
| 2026-04-24 19:22 | 52.68327 | 7.15459 | 32888 ft | 418 kts | 223° |
| 2026-04-24 19:22 | 52.65294 | 7.11545 | 33191 ft | 418 kts | 222° |
| 2026-04-24 19:22 | 52.63000 | 7.08596 | 33423 ft | 418 kts | 222° |
| 2026-04-24 19:22 | 52.60711 | 7.05656 | 33668 ft | 417 kts | 223° |
| 2026-04-24 19:23 | 52.58422 | 7.02714 | 33885 ft | 417 kts | 223° |
| 2026-04-24 19:23 | 52.56138 | 6.99783 | 34128 ft | 416 kts | 223° |
| 2026-04-24 19:23 | 52.53853 | 6.96857 | 34309 ft | 416 kts | 222° |
| 2026-04-24 19:23 | 52.51567 | 6.93932 | 34479 ft | 417 kts | 222° |
| 2026-04-24 19:24 | 52.49271 | 6.90997 | 34649 ft | 417 kts | 222° |
| 2026-04-24 19:24 | 52.46979 | 6.88072 | 34827 ft | 417 kts | 222° |
| 2026-04-24 19:24 | 52.44689 | 6.85156 | 35005 ft | 417 kts | 222° |
| 2026-04-24 19:24 | 52.42396 | 6.82241 | 35186 ft | 417 kts | 222° |
| 2026-04-24 19:25 | 52.40101 | 6.79321 | 35361 ft | 417 kts | 222° |
| 2026-04-24 19:25 | 52.37809 | 6.76407 | 35533 ft | 417 kts | 222° |
| 2026-04-24 19:25 | 52.35513 | 6.73501 | 35645 ft | 416 kts | 222° |
| 2026-04-24 19:25 | 52.33226 | 6.70613 | 35246 ft | 414 kts | 221° |
| 2026-04-24 19:26 | 52.28668 | 6.64865 | 35231 ft | 418 kts | 221° |
| 2026-04-24 19:26 | 52.24056 | 6.59048 | 35231 ft | 419 kts | 221° |
| 2026-04-24 19:27 | 52.19433 | 6.53239 | 35233 ft | 419 kts | 221° |
| 2026-04-24 19:27 | 52.14807 | 6.47447 | 35237 ft | 419 kts | 221° |
| 2026-04-24 19:28 | 52.10174 | 6.41674 | 35220 ft | 420 kts | 221° |
| 2026-04-24 19:28 | 52.05539 | 6.35888 | 35237 ft | 420 kts | 221° |
| 2026-04-24 19:29 | 51.98567 | 6.27227 | 35236 ft | 420 kts | 221° |
| 2026-04-24 19:30 | 51.93923 | 6.21470 | 35241 ft | 420 kts | 221° |
| 2026-04-24 19:30 | 51.89278 | 6.15722 | 35237 ft | 420 kts | 221° |
| 2026-04-24 19:31 | 51.84651 | 6.10011 | 35233 ft | 421 kts | 221° |
| 2026-04-24 19:31 | 51.79981 | 6.04276 | 35228 ft | 422 kts | 221° |
| 2026-04-24 19:32 | 51.75283 | 5.98528 | 35234 ft | 425 kts | 220° |
| 2026-04-24 19:32 | 51.70563 | 5.92770 | 35249 ft | 425 kts | 220° |
| 2026-04-24 19:33 | 51.65839 | 5.87023 | 35214 ft | 425 kts | 220° |
| 2026-04-24 19:33 | 51.61100 | 5.81274 | 35246 ft | 427 kts | 220° |
| 2026-04-24 19:34 | 51.56356 | 5.75525 | 35249 ft | 427 kts | 220° |
| 2026-04-24 19:34 | 51.51608 | 5.69788 | 35245 ft | 427 kts | 220° |
| 2026-04-24 19:35 | 51.46859 | 5.64069 | 35252 ft | 427 kts | 220° |
| 2026-04-24 19:35 | 51.42100 | 5.58346 | 35242 ft | 428 kts | 220° |
| 2026-04-24 19:36 | 51.37324 | 5.52623 | 35248 ft | 429 kts | 220° |
| 2026-04-24 19:36 | 51.32545 | 5.46904 | 35242 ft | 429 kts | 220° |
| 2026-04-24 19:37 | 51.27787 | 5.41233 | 35238 ft | 429 kts | 219° |
| 2026-04-24 19:37 | 51.22992 | 5.35544 | 35239 ft | 429 kts | 219° |
| 2026-04-24 19:38 | 51.18186 | 5.29854 | 35237 ft | 431 kts | 219° |
| 2026-04-24 19:38 | 51.13374 | 5.24163 | 35236 ft | 431 kts | 219° |
| 2026-04-24 19:39 | 51.08560 | 5.18477 | 35236 ft | 431 kts | 219° |
| 2026-04-24 19:39 | 51.03735 | 5.12807 | 35236 ft | 431 kts | 219° |
| 2026-04-24 19:40 | 50.98910 | 5.07146 | 35234 ft | 431 kts | 219° |
| 2026-04-24 19:40 | 50.94082 | 5.01488 | 35231 ft | 431 kts | 219° |
| 2026-04-24 19:41 | 50.89253 | 4.95848 | 35230 ft | 431 kts | 219° |
| 2026-04-24 19:41 | 50.84446 | 4.90267 | 35228 ft | 431 kts | 219° |
| 2026-04-24 19:42 | 50.79609 | 4.84661 | 35229 ft | 431 kts | 219° |
| 2026-04-24 19:42 | 50.74738 | 4.79013 | 34948 ft | 437 kts | 218° |
| 2026-04-24 19:42 | 50.72278 | 4.76166 | 34705 ft | 439 kts | 218° |
| 2026-04-24 19:43 | 50.69810 | 4.73317 | 34471 ft | 440 kts | 218° |
| 2026-04-24 19:43 | 50.67335 | 4.70467 | 34228 ft | 440 kts | 218° |
| 2026-04-24 19:43 | 50.64860 | 4.67617 | 33963 ft | 441 kts | 218° |
| 2026-04-24 19:43 | 50.62381 | 4.64766 | 33682 ft | 442 kts | 218° |
| 2026-04-24 19:44 | 50.59895 | 4.61909 | 33409 ft | 443 kts | 218° |
| 2026-04-24 19:44 | 50.57406 | 4.59053 | 33142 ft | 443 kts | 218° |
| 2026-04-24 19:44 | 50.54911 | 4.56194 | 32858 ft | 445 kts | 218° |
| 2026-04-24 19:44 | 50.52401 | 4.53326 | 32585 ft | 447 kts | 218° |
| 2026-04-24 19:45 | 50.49880 | 4.50446 | 32336 ft | 448 kts | 218° |
| 2026-04-24 19:45 | 50.47352 | 4.47561 | 32083 ft | 449 kts | 218° |
| 2026-04-24 19:45 | 50.44818 | 4.44674 | 31824 ft | 450 kts | 218° |
| 2026-04-24 19:45 | 50.42282 | 4.41792 | 31568 ft | 451 kts | 218° |
| 2026-04-24 19:46 | 50.39739 | 4.38909 | 31321 ft | 451 kts | 218° |
| 2026-04-24 19:46 | 50.38053 | 4.37001 | 31156 ft | 452 kts | 218° |
| 2026-04-24 19:46 | 50.35503 | 4.34116 | 30912 ft | 452 kts | 218° |
| 2026-04-24 19:46 | 50.32947 | 4.31226 | 30655 ft | 453 kts | 217° |
| 2026-04-24 19:47 | 50.30387 | 4.28336 | 30415 ft | 455 kts | 217° |
| 2026-04-24 19:47 | 50.27817 | 4.25438 | 30155 ft | 455 kts | 217° |
| 2026-04-24 19:47 | 50.25247 | 4.22541 | 29869 ft | 454 kts | 217° |
| 2026-04-24 19:47 | 50.22719 | 4.19697 | 29583 ft | 441 kts | 217° |
| 2026-04-24 19:48 | 50.20263 | 4.16938 | 29295 ft | 429 kts | 217° |
| 2026-04-24 19:48 | 50.17856 | 4.14282 | 29020 ft | 420 kts | 214° |
| 2026-04-24 19:48 | 50.12500 | 4.10893 | 28472 ft | 418 kts | 193° |
| 2026-04-24 19:49 | 50.06719 | 4.10183 | 27934 ft | 415 kts | 185° |
| 2026-04-24 19:49 | 50.00780 | 4.09713 | 27411 ft | 435 kts | 187° |
| 2026-04-24 19:50 | 49.91978 | 4.07598 | 25364 ft | 422 kts | 207° |
| 2026-04-24 19:50 | 49.89469 | 4.05314 | 24764 ft | 416 kts | 212° |
| 2026-04-24 19:51 | 49.84589 | 4.00637 | 23579 ft | 408 kts | 212° |
| 2026-04-24 19:51 | 49.82184 | 3.98338 | 22903 ft | 404 kts | 212° |
| 2026-04-24 19:52 | 49.77435 | 3.93824 | 21589 ft | 398 kts | 212° |
| 2026-04-24 19:52 | 49.75117 | 3.91620 | 20962 ft | 395 kts | 212° |
| 2026-04-24 19:52 | 49.72756 | 3.89374 | 20335 ft | 392 kts | 212° |
| 2026-04-24 19:52 | 49.70451 | 3.87184 | 19727 ft | 390 kts | 212° |
| 2026-04-24 19:53 | 49.68129 | 3.84985 | 19130 ft | 388 kts | 212° |
| 2026-04-24 19:53 | 49.65839 | 3.82815 | 18556 ft | 386 kts | 212° |
| 2026-04-24 19:53 | 49.61308 | 3.78533 | 17233 ft | 382 kts | 212° |
| 2026-04-24 19:54 | 49.59047 | 3.76401 | 16586 ft | 380 kts | 211° |
| 2026-04-24 19:54 | 49.56800 | 3.74285 | 15965 ft | 377 kts | 212° |
| 2026-04-24 19:54 | 49.54566 | 3.72187 | 15392 ft | 374 kts | 212° |
| 2026-04-24 19:54 | 49.52376 | 3.70145 | 15194 ft | 362 kts | 212° |
| 2026-04-24 19:55 | 49.50942 | 3.68806 | 15172 ft | 354 kts | 212° |
| 2026-04-24 19:55 | 49.48304 | 3.65874 | 15188 ft | 353 kts | 223° |
| 2026-04-24 19:55 | 49.46604 | 3.63167 | 15192 ft | 352 kts | 231° |
| 2026-04-24 19:55 | 49.45190 | 3.60093 | 15195 ft | 352 kts | 239° |
| 2026-04-24 19:56 | 49.44087 | 3.56746 | 15187 ft | 352 kts | 248° |
| 2026-04-24 19:56 | 49.43314 | 3.53182 | 15197 ft | 352 kts | 256° |
| 2026-04-24 19:56 | 49.42701 | 3.49532 | 15188 ft | 353 kts | 256° |
| 2026-04-24 19:56 | 49.42067 | 3.45876 | 15192 ft | 353 kts | 253° |
| 2026-04-24 19:57 | 49.41208 | 3.42348 | 15197 ft | 354 kts | 248° |
| 2026-04-24 19:57 | 49.40264 | 3.38862 | 15187 ft | 353 kts | 248° |
| 2026-04-24 19:57 | 49.39323 | 3.35368 | 15197 ft | 354 kts | 248° |
| 2026-04-24 19:57 | 49.38392 | 3.31895 | 14921 ft | 350 kts | 248° |
| 2026-04-24 19:58 | 49.37467 | 3.28439 | 14405 ft | 348 kts | 249° |
| 2026-04-24 19:58 | 49.36549 | 3.25008 | 13901 ft | 346 kts | 248° |
| 2026-04-24 19:58 | 49.35638 | 3.21608 | 13347 ft | 344 kts | 249° |
| 2026-04-24 19:58 | 49.34732 | 3.18232 | 12802 ft | 341 kts | 249° |
| 2026-04-24 19:59 | 49.33829 | 3.14872 | 12269 ft | 339 kts | 248° |
| 2026-04-24 19:59 | 49.32934 | 3.11550 | 11754 ft | 336 kts | 248° |
| 2026-04-24 19:59 | 49.32042 | 3.08253 | 11305 ft | 333 kts | 248° |
| 2026-04-24 19:59 | 49.31153 | 3.04981 | 11174 ft | 333 kts | 248° |
| 2026-04-24 20:00 | 49.30259 | 3.01694 | 11188 ft | 335 kts | 248° |
| 2026-04-24 20:00 | 49.29361 | 2.98396 | 11193 ft | 335 kts | 248° |
| 2026-04-24 20:00 | 49.28460 | 2.95094 | 11190 ft | 335 kts | 248° |
| 2026-04-24 20:00 | 49.27572 | 2.91849 | 11191 ft | 335 kts | 248° |
| 2026-04-24 20:01 | 49.26676 | 2.88577 | 11190 ft | 320 kts | 248° |
| 2026-04-24 20:01 | 49.25851 | 2.85561 | 11187 ft | 304 kts | 248° |
| 2026-04-24 20:01 | 49.25044 | 2.82603 | 11190 ft | 300 kts | 248° |
| 2026-04-24 20:01 | 49.24243 | 2.79660 | 11190 ft | 299 kts | 248° |
| 2026-04-24 20:02 | 49.23701 | 2.77676 | 11190 ft | 299 kts | 248° |
| 2026-04-24 20:02 | 49.22637 | 2.73789 | 11188 ft | 299 kts | 248° |
| 2026-04-24 20:02 | 49.21828 | 2.70847 | 11178 ft | 300 kts | 248° |
| 2026-04-24 20:02 | 49.21019 | 2.67910 | 11174 ft | 299 kts | 248° |
| 2026-04-24 20:03 | 49.20210 | 2.64980 | 11169 ft | 299 kts | 248° |
| 2026-04-24 20:03 | 49.19407 | 2.62067 | 10853 ft | 296 kts | 248° |
| 2026-04-24 20:03 | 49.18615 | 2.59174 | 10462 ft | 294 kts | 250° |
| 2026-04-24 20:03 | 49.18112 | 2.56176 | 10090 ft | 290 kts | 264° |
| 2026-04-24 20:04 | 49.18020 | 2.53118 | 9674 ft | 288 kts | 269° |
| 2026-04-24 20:04 | 49.17958 | 2.50065 | 9249 ft | 287 kts | 269° |
| 2026-04-24 20:04 | 49.17890 | 2.47021 | 8833 ft | 286 kts | 268° |
| 2026-04-24 20:04 | 49.17821 | 2.43993 | 8439 ft | 284 kts | 268° |
| 2026-04-24 20:05 | 49.17735 | 2.40982 | 8044 ft | 283 kts | 264° |
| 2026-04-24 20:05 | 49.17275 | 2.38096 | 7646 ft | 283 kts | 252° |
| 2026-04-24 20:05 | 49.16670 | 2.35238 | 7245 ft | 282 kts | 252° |
| 2026-04-24 20:05 | 49.16063 | 2.32387 | 6873 ft | 282 kts | 252° |
| 2026-04-24 20:06 | 49.15464 | 2.29549 | 6506 ft | 280 kts | 252° |
| 2026-04-24 20:06 | 49.14868 | 2.26716 | 6127 ft | 279 kts | 252° |
| 2026-04-24 20:06 | 49.14282 | 2.23909 | 5751 ft | 277 kts | 252° |
| 2026-04-24 20:06 | 49.13701 | 2.21104 | 5367 ft | 276 kts | 252° |
| 2026-04-24 20:07 | 49.13315 | 2.19265 | 5130 ft | 275 kts | 250° |
| 2026-04-24 20:07 | 49.12186 | 2.15881 | 4895 ft | 260 kts | 228° |
| 2026-04-24 20:07 | 49.10966 | 2.13938 | 4763 ft | 248 kts | 223° |
| 2026-04-24 20:07 | 49.09745 | 2.12144 | 4536 ft | 241 kts | 222° |
| 2026-04-24 20:08 | 49.08541 | 2.10391 | 4222 ft | 238 kts | 222° |
| 2026-04-24 20:08 | 49.07356 | 2.08656 | 4031 ft | 235 kts | 221° |
| 2026-04-24 20:08 | 49.05990 | 2.07335 | 4038 ft | 233 kts | 193° |
| 2026-04-24 20:08 | 49.04409 | 2.07300 | 4040 ft | 228 kts | 160° |
| 2026-04-24 20:09 | 49.03103 | 2.08564 | 4045 ft | 223 kts | 127° |
| 2026-04-24 20:09 | 49.02358 | 2.10528 | 4039 ft | 209 kts | 114° |
| 2026-04-24 20:09 | 49.01779 | 2.12552 | 4040 ft | 208 kts | 112° |
| 2026-04-24 20:09 | 49.01225 | 2.14555 | 4032 ft | 208 kts | 112° |
| 2026-04-24 20:10 | 49.00681 | 2.16591 | 4038 ft | 207 kts | 107° |
| 2026-04-24 20:10 | 49.00581 | 2.18765 | 4038 ft | 208 kts | 86° |
| 2026-04-24 20:10 | 49.00713 | 2.20962 | 4033 ft | 209 kts | 85° |
| 2026-04-24 20:10 | 49.00845 | 2.23161 | 4032 ft | 209 kts | 85° |
| 2026-04-24 20:11 | 49.00971 | 2.25362 | 3860 ft | 208 kts | 85° |
| 2026-04-24 20:11 | 49.01094 | 2.27537 | 3612 ft | 205 kts | 85° |
| 2026-04-24 20:11 | 49.01215 | 2.29684 | 3357 ft | 200 kts | 85° |
| 2026-04-24 20:11 | 49.01330 | 2.31743 | 3096 ft | 190 kts | 85° |
| 2026-04-24 20:12 | 49.01439 | 2.33702 | 2841 ft | 181 kts | 85° |
| 2026-04-24 20:12 | 49.01540 | 2.35509 | 2614 ft | 162 kts | 84° |
| 2026-04-24 20:12 | 49.01630 | 2.37142 | 2404 ft | 148 kts | 84° |
| 2026-04-24 20:12 | 49.01715 | 2.38671 | 2201 ft | 142 kts | 84° |
| 2026-04-24 20:13 | 49.01797 | 2.40157 | 2025 ft | 140 kts | 84° |
| 2026-04-24 20:13 | 49.01876 | 2.41624 | 1825 ft | 139 kts | 84° |
| 2026-04-24 20:13 | 49.01936 | 2.43093 | 1676 ft | 139 kts | 84° |
| 2026-04-24 20:13 | 49.02007 | 2.44558 | 1457 ft | 138 kts | 84° |
| 2026-04-24 20:14 | 49.02083 | 2.46002 | 1256 ft | 138 kts | 84° |
| 2026-04-24 20:14 | 49.02169 | 2.47450 | 1076 ft | 137 kts | 82° |
| 2026-04-24 20:14 | 49.02256 | 2.48909 | 901 ft | 139 kts | 83° |
| 2026-04-24 20:14 | 49.02343 | 2.50373 | 725 ft | 139 kts | 83° |
| 2026-04-24 20:15 | 49.02431 | 2.51838 | 517 ft | 140 kts | 82° |
| 2026-04-24 20:15 | 49.02498 | 2.53269 | 355 ft | 122 kts | 85° |
| 2026-04-24 20:15 | 49.02576 | 2.54352 | 356 ft | 83 kts | 83° |
| 2026-04-24 20:15 | 49.02612 | 2.54849 | 353 ft | 32 kts | 85° |
| 2026-04-24 20:16 | 49.02600 | 2.55172 | 358 ft | 27 kts | 107° |
| 2026-04-24 20:16 | 49.02556 | 2.55336 | 358 ft | 16 kts | 115° |
| 2026-04-24 20:16 | 49.02504 | 2.55504 | 361 ft | 18 kts | 115° |
| 2026-04-24 20:16 | 49.02406 | 2.55612 | 359 ft | 19 kts | 169° |
| 2026-04-24 20:17 | 49.02271 | 2.55633 | 354 ft | 20 kts | 175° |
| 2026-04-24 20:17 | 49.02175 | 2.55644 | 354 ft | 0 kts | 176° |
| 2026-04-24 20:18 | 49.02174 | 2.55644 | 354 ft | 1 kts | 176° |
| 2026-04-24 20:18 | 49.02149 | 2.55646 | 355 ft | 7 kts | 176° |
| 2026-04-24 20:19 | 49.02090 | 2.55652 | 359 ft | 9 kts | 176° |
| 2026-04-24 20:19 | 49.02023 | 2.55659 | 354 ft | 10 kts | 176° |
| 2026-04-24 20:19 | 49.01947 | 2.55666 | 354 ft | 12 kts | 178° |
| 2026-04-24 20:19 | 49.01890 | 2.55591 | 363 ft | 12 kts | 255° |
| 2026-04-24 20:20 | 49.01878 | 2.55455 | 354 ft | 14 kts | 265° |
| 2026-04-24 20:20 | 49.01870 | 2.55303 | 354 ft | 15 kts | 265° |
| 2026-04-24 20:20 | 49.01861 | 2.55137 | 361 ft | 16 kts | 265° |
| 2026-04-24 20:20 | 49.01853 | 2.54958 | 354 ft | 18 kts | 266° |
| 2026-04-24 20:21 | 49.01765 | 2.54865 | 354 ft | 18 kts | 180° |
| 2026-04-24 20:21 | 49.01642 | 2.54879 | 354 ft | 18 kts | 174° |
| 2026-04-24 20:21 | 49.01513 | 2.54899 | 361 ft | 19 kts | 175° |
| 2026-04-24 20:21 | 49.01391 | 2.54923 | 359 ft | 12 kts | 166° |
| 2026-04-24 20:22 | 49.01308 | 2.54956 | 357 ft | 13 kts | 165° |
| 2026-04-24 20:22 | 49.01233 | 2.54902 | 359 ft | 14 kts | 250° |
| 2026-04-24 20:22 | 49.01227 | 2.54855 | 359 ft | 0 kts | 262° |
| 2026-04-24 20:22 | 49.01226 | 2.54846 | 362 ft | 3 kts | 262° |
| 2026-04-24 20:23 | 49.01222 | 2.54793 | 354 ft | 7 kts | 265° |
| 2026-04-24 20:23 | 49.01217 | 2.54690 | 360 ft | 12 kts | 265° |
| 2026-04-24 20:23 | 49.01210 | 2.54540 | 362 ft | 16 kts | 265° |
| 2026-04-24 20:23 | 49.01229 | 2.54363 | 357 ft | 18 kts | 307° |
| 2026-04-24 20:24 | 49.01291 | 2.54322 | 348 ft | 15 kts | 359° |
| 2026-04-24 20:24 | 49.01414 | 2.54376 | 357 ft | 12 kts | 9° |
| 2026-04-24 20:24 | 49.01459 | 2.54384 | 355 ft | 4 kts | 43° |
| 2026-04-24 20:24 | 49.01470 | 2.54410 | 358 ft | 2 kts | 64° |
| 2026-04-24 20:25 | 49.01473 | 2.54446 | 358 ft | 3 kts | 87° |
| 2026-04-24 20:25 | 49.01473 | 2.54460 | 356 ft | 0 kts | 91° |